Terminal Aerodrome Forecast
Issued by NWS

Home | Current Version | Previous Version | Text Only | Print | Product List | Glossary On
Versions: 1 2 3 4 5 6 7 8 9 10 11 12 13 14 15
660
FTUS45 KTFX 122332
TAFGTF
TAF
KGTF 122332Z 1300/1324 21011KT P6SM SCT080 BKN140
     FM131000 22013G20KT P6SM VCSH SCT040 OVC070
     FM131600 24020G32KT P6SM SCT070 BKN120=

USA.gov is the U.S. government's official web portal to all federal, state and local government web resources and services.